Time;durP1;ratioP1;P1;durP2;ratioP2;P2;SDS_P1;SDS_P2;PMS_P1;PMS_P2;Temp;Humidity;BMP_temperature;BMP_pressure;BME280_temperature;BME280_humidity;BME280_pressure;Samples;Min_cycle;Max_cycle;Signal;HPM_P1;HPM_P2
2022/05/19 00:02:04;;;;;;;18.37;8.58;;;;;;;7.96;54.52;101766.52;1599749;88;25752;-79
2022/05/19 00:04:31;;;;;;;16.20;8.28;;;;;;;7.98;54.38;101763.21;1591575;88;25780;-80
2022/05/19 00:06:58;;;;;;;19.98;9.78;;;;;;;8.01;54.31;101767.79;1589712;90;26676;-79
2022/05/19 00:09:25;;;;;;;31.42;14.18;;;;;;;8.02;54.60;101768.13;1592190;88;25839;-79
2022/05/19 00:11:54;;;;;;;30.27;13.18;;;;;;;7.91;55.14;101770.12;1589626;90;28223;-79
2022/05/19 00:14:20;;;;;;;33.42;15.72;;;;;;;7.77;55.71;101771.38;1594118;88;26049;-79
2022/05/19 00:16:47;;;;;;;34.55;14.13;;;;;;;7.66;55.97;101774.17;1598502;88;25654;-79
2022/05/19 00:19:18;;;;;;;25.15;12.35;;;;;;;7.53;55.97;101769.11;1597873;88;25846;-80
2022/05/19 00:21:44;;;;;;;25.15;12.55;;;;;;;7.42;56.42;101771.89;1597901;88;25921;-80
2022/05/19 00:24:10;;;;;;;24.72;12.15;;;;;;;7.32;56.61;101763.53;1599434;88;27617;-79
2022/05/19 00:26:37;;;;;;;28.30;11.73;;;;;;;7.23;56.65;101764.38;1595186;88;26570;-80
2022/05/19 00:29:03;;;;;;;26.37;11.80;;;;;;;7.12;56.86;101758.64;1577207;90;26023;-80
2022/05/19 00:31:31;;;;;;;22.95;11.28;;;;;;;7.05;57.03;101758.00;1602933;87;25896;-78
2022/05/19 00:34:00;;;;;;;25.23;11.40;;;;;;;6.97;57.51;101766.17;1578019;90;25945;-80
2022/05/19 00:36:28;;;;;;;29.65;11.50;;;;;;;6.89;57.86;101764.68;1612853;88;27733;-80
2022/05/19 00:38:55;;;;;;;26.93;11.90;;;;;;;6.81;58.25;101766.33;1589703;88;25857;-81
2022/05/19 00:41:22;;;;;;;21.68;11.63;;;;;;;6.74;58.42;101762.50;1589823;90;26521;-79
2022/05/19 00:44:07;;;;;;;27.25;11.57;;;;;;;6.73;58.61;101758.17;1589509;90;26679;-80
2022/05/19 00:46:44;;;;;;;27.48;10.53;;;;;;;6.68;58.73;101759.91;1604879;88;25879;-80
2022/05/19 00:49:19;;;;;;;24.15;10.28;;;;;;;6.60;58.89;101762.39;1610255;88;27552;-80
2022/05/19 00:52:02;;;;;;;23.35;10.70;;;;;;;6.58;58.97;101762.17;1589241;90;26127;-80
2022/05/19 00:54:42;;;;;;;23.02;11.33;;;;;;;6.54;59.04;101764.27;1590023;90;25875;-80
2022/05/19 00:57:22;;;;;;;24.20;10.40;;;;;;;6.52;59.41;101768.84;1589901;90;26240;-79
2022/05/19 00:59:58;;;;;;;29.63;10.68;;;;;;;6.50;59.59;101765.98;1605893;88;26541;-81
2022/05/19 01:02:32;;;;;;;24.02;11.20;;;;;;;6.46;59.59;101769.89;1599834;88;28387;-79
2022/05/19 01:05:07;;;;;;;23.40;11.15;;;;;;;6.44;59.69;101773.14;1607500;88;25894;-80
2022/05/19 01:07:46;;;;;;;30.60;10.38;;;;;;;6.42;59.71;101775.09;1602336;87;25890;-79
2022/05/19 01:10:14;;;;;;;26.07;9.43;;;;;;;6.39;59.97;101775.38;1633848;87;25332;-81
2022/05/19 01:12:44;;;;;;;18.10;9.88;;;;;;;6.37;60.09;101773.33;1604843;88;25802;-79
2022/05/19 01:15:11;;;;;;;21.45;10.18;;;;;;;6.35;59.98;101773.44;1614922;88;28266;-78
2022/05/19 01:17:37;;;;;;;22.85;10.43;;;;;;;6.34;60.03;101772.25;1575899;90;26058;-79
2022/05/19 01:20:09;;;;;;;25.62;11.28;;;;;;;6.33;60.14;101771.91;1606431;88;25906;-81
2022/05/19 01:22:47;;;;;;;20.35;11.78;;;;;;;6.32;60.32;101768.87;1573239;88;25944;-79
2022/05/19 01:25:55;;;;;;;24.07;11.40;;;;;;;6.26;60.25;101765.41;1589611;88;26562;-79
2022/05/19 01:28:21;;;;;;;19.62;10.50;;;;;;;6.18;60.38;101764.23;1603143;88;28332;-78
2022/05/19 01:30:48;;;;;;;24.47;9.85;;;;;;;6.15;60.34;101758.34;1644333;87;25852;-78
2022/05/19 01:33:14;;;;;;;23.07;10.90;;;;;;;6.11;60.28;101757.78;1604072;87;25828;-81
2022/05/19 01:35:40;;;;;;;22.27;10.10;;;;;;;6.08;60.31;101763.82;1599574;87;25760;-78
2022/05/19 01:38:14;;;;;;;22.35;10.55;;;;;;;6.05;60.09;101759.59;1589168;90;25904;-78
2022/05/19 01:41:09;;;;;;;17.73;10.35;;;;;;;6.04;60.13;101766.38;1568572;90;27497;-79
2022/05/19 01:44:06;;;;;;;19.80;10.95;;;;;;;6.03;60.11;101760.73;1533778;92;25952;-78
2022/05/19 01:46:37;;;;;;;20.80;10.80;;;;;;;5.99;60.62;101767.25;1583006;88;26520;-79
2022/05/19 01:49:10;;;;;;;;;;;;;;;5.95;60.61;101771.14;1591975;90;26536;-79
2022/05/19 01:51:45;;;;;;;19.73;9.73;;;;;;;5.93;60.57;101768.62;1589754;90;25912;-78
2022/05/19 01:54:31;;;;;;;21.55;10.05;;;;;;;5.89;60.45;101766.34;1563511;91;27722;-78
2022/05/19 01:57:15;;;;;;;17.73;9.10;;;;;;;5.86;60.53;101767.95;1589543;90;25934;-79
2022/05/19 02:00:11;;;;;;;20.37;9.75;;;;;;;5.82;60.75;101771.29;1563540;91;26309;-77
2022/05/19 02:03:03;;;;;;;22.80;10.10;;;;;;;5.79;60.76;101762.73;1590069;90;26034;-78
2022/05/19 02:05:38;;;;;;;20.27;10.15;;;;;;;5.76;61.02;101772.28;1564109;90;25894;-78
2022/05/19 02:08:08;;;;;;;21.65;10.03;;;;;;;5.70;61.09;101763.02;1590258;90;26995;-78
2022/05/19 02:10:40;;;;;;;22.85;11.25;;;;;;;5.60;61.16;101771.41;1564452;91;25811;-81
2022/05/19 02:13:08;;;;;;;23.25;9.45;;;;;;;5.52;61.26;101763.70;1590158;89;26199;-78
2022/05/19 02:15:39;;;;;;;20.60;10.10;;;;;;;5.48;61.39;101761.28;1563761;91;26614;-79
2022/05/19 02:18:06;;;;;;;19.17;9.40;;;;;;;5.45;61.61;101762.84;1589836;90;25342;-80
2022/05/19 02:20:34;;;;;;;27.98;10.00;;;;;;;5.42;61.64;101762.27;1563754;91;27635;-79
2022/05/19 02:23:01;;;;;;;18.75;9.85;;;;;;;5.39;61.80;101755.86;1589690;90;26320;-80
2022/05/19 02:25:45;;;;;;;17.80;9.50;;;;;;;5.32;61.77;101753.37;1563560;90;25819;-79
2022/05/19 02:28:19;;;;;;;26.57;10.80;;;;;;;5.27;61.98;101751.55;1589815;90;26620;-80
2022/05/19 02:30:45;;;;;;;27.13;10.70;;;;;;;5.22;61.88;101751.08;1563876;91;25792;-79
2022/05/19 02:33:15;;;;;;;22.82;9.95;;;;;;;5.16;62.00;101748.45;1589605;90;27493;-78
2022/05/19 02:35:43;;;;;;;19.67;9.03;;;;;;;5.13;62.27;101753.17;1564095;91;25850;-78
2022/05/19 02:38:11;;;;;;;21.93;10.45;;;;;;;5.10;62.40;101750.27;1589999;90;25778;-80
2022/05/19 02:40:38;;;;;;;19.65;9.63;;;;;;;5.10;62.51;101754.73;1563922;91;25820;-80
2022/05/19 02:43:06;;;;;;;20.68;10.15;;;;;;;5.07;62.62;101748.36;1589607;88;26177;-79
2022/05/19 02:45:34;;;;;;;17.73;9.73;;;;;;;5.01;62.59;101751.00;1563787;91;27492;-79
2022/05/19 02:48:01;;;;;;;17.98;9.28;;;;;;;4.99;62.57;101746.78;1589654;90;25830;-78
2022/05/19 02:50:29;;;;;;;18.12;9.08;;;;;;;4.99;62.47;101748.11;1563961;91;25921;-80
2022/05/19 02:52:55;;;;;;;22.75;9.18;;;;;;;5.02;62.58;101746.07;1589788;90;25796;-78
2022/05/19 02:55:22;;;;;;;18.42;9.00;;;;;;;5.10;62.41;101746.77;1563612;91;26095;-79
2022/05/19 02:57:50;;;;;;;15.13;8.78;;;;;;;5.18;62.50;101749.16;1589751;88;27469;-78
2022/05/19 03:00:22;;;;;;;17.77;8.85;;;;;;;5.25;62.37;101750.84;1563615;91;25914;-78
2022/05/19 03:02:49;;;;;;;17.80;9.25;;;;;;;5.23;62.18;101748.31;1589743;90;25810;-79
2022/05/19 03:05:20;;;;;;;20.50;9.83;;;;;;;5.22;62.45;101752.41;1564053;90;26529;-78
2022/05/19 03:07:47;;;;;;;17.02;10.08;;;;;;;5.21;62.51;101746.75;1588708;88;25986;-79
2022/05/19 03:10:14;;;;;;;18.98;9.98;;;;;;;5.20;62.68;101746.38;1589362;88;27485;-78
2022/05/19 03:12:41;;;;;;;18.67;10.53;;;;;;;5.17;62.62;101743.98;1604815;88;25831;-79
2022/05/19 03:15:09;;;;;;;16.23;10.25;;;;;;;5.15;62.64;101745.45;1603224;88;25770;-79
2022/05/19 03:17:37;;;;;;;18.98;10.15;;;;;;;5.17;62.90;101753.28;1587822;90;25961;-79
2022/05/19 03:20:06;;;;;;;21.40;10.58;;;;;;;5.17;62.80;101754.61;1615106;88;26023;-79
2022/05/19 03:22:34;;;;;;;16.67;9.45;;;;;;;5.16;62.99;101752.43;1576049;89;28317;-78
2022/05/19 03:25:00;;;;;;;15.32;8.40;;;;;;;5.15;62.79;101746.77;1589152;90;25830;-80
2022/05/19 03:27:26;;;;;;;16.82;9.03;;;;;;;5.24;62.77;101743.83;1589221;90;25610;-79
2022/05/19 03:29:53;;;;;;;16.27;8.80;;;;;;;5.35;62.84;101751.30;1593117;88;25947;-79
2022/05/19 03:32:20;;;;;;;24.20;10.15;;;;;;;5.46;62.71;101749.09;1615415;87;25781;-79
2022/05/19 03:34:46;;;;;;;18.80;10.43;;;;;;;5.53;62.85;101748.95;1626735;87;27518;-78
2022/05/19 03:37:14;;;;;;;28.15;11.15;;;;;;;5.48;63.16;101745.34;1610650;88;26582;-80
2022/05/19 03:39:41;;;;;;;18.42;10.43;;;;;;;5.48;63.29;101745.81;1611172;88;26039;-77
2022/05/19 03:42:08;;;;;;;14.55;9.75;;;;;;;5.48;63.35;101742.68;1611303;88;25814;-78
2022/05/19 03:44:35;;;;;;;20.32;10.30;;;;;;;5.49;63.54;101748.34;1604969;88;25905;-77
2022/05/19 03:47:04;;;;;;;22.13;10.65;;;;;;;5.49;63.80;101757.64;1610170;88;27585;-78
2022/05/19 03:49:33;;;;;;;18.35;10.60;;;;;;;5.48;63.88;101755.97;1602429;88;26022;-79
2022/05/19 03:51:59;;;;;;;18.42;9.55;;;;;;;5.50;63.81;101751.84;1605284;88;25814;-78
2022/05/19 03:54:25;;;;;;;17.40;9.88;;;;;;;5.55;64.14;101753.65;1633450;87;25850;-79
2022/05/19 03:56:52;;;;;;;15.88;8.15;;;;;;;5.63;64.15;101752.52;1628160;87;26100;-78
2022/05/19 03:59:18;;;;;;;12.98;7.37;;;;;;;5.78;64.22;101745.94;1652074;85;28058;-78
2022/05/19 04:01:45;;;;;;;11.45;6.42;;;;;;;5.98;64.20;101746.48;1598621;87;26703;-79
2022/05/19 04:04:11;;;;;;;10.65;6.33;;;;;;;6.23;64.35;101742.09;1588907;90;26079;-78
2022/05/19 04:06:39;;;;;;;12.78;6.25;;;;;;;6.51;64.24;101737.90;1595740;88;25857;-78
2022/05/19 04:09:05;;;;;;;13.90;7.03;;;;;;;6.75;63.77;101736.25;1611484;88;25882;-79
2022/05/19 04:11:33;;;;;;;13.18;6.55;;;;;;;6.97;63.51;101730.21;1611295;88;27548;-79
2022/05/19 04:13:59;;;;;;;14.63;6.95;;;;;;;7.19;63.24;101733.62;1606183;87;26014;-79
2022/05/19 04:16:25;;;;;;;15.90;6.70;;;;;;;7.41;62.75;101730.72;1613222;88;25953;-79
2022/05/19 04:18:51;;;;;;;12.18;6.37;;;;;;;7.58;62.59;101734.03;1604744;87;25996;-79
2022/05/19 04:21:18;;;;;;;14.90;6.20;;;;;;;7.75;62.26;101734.18;1611759;87;25984;-79
2022/05/19 04:23:44;;;;;;;18.95;6.53;;;;;;;7.90;61.95;101734.59;1577619;88;28238;-78
2022/05/19 04:26:10;;;;;;;12.58;6.03;;;;;;;8.03;61.95;101731.63;1595613;88;25807;-79
2022/05/19 04:28:36;;;;;;;12.43;6.15;;;;;;;8.17;61.83;101729.86;1570442;90;26645;-79
2022/05/19 04:31:02;;;;;;;10.48;6.17;;;;;;;8.29;61.49;101733.58;1597669;88;25857;-79
2022/05/19 04:33:29;;;;;;;15.03;5.78;;;;;;;8.42;61.47;101731.92;1565239;90;25365;-81
2022/05/19 04:35:55;;;;;;;12.18;6.47;;;;;;;8.56;61.16;101732.78;1597191;87;27656;-78
2022/05/19 04:38:24;;;;;;;12.70;6.00;;;;;;;8.71;60.89;101741.15;1602780;87;25810;-78
2022/05/19 04:40:51;;;;;;;11.85;5.42;;;;;;;8.84;60.65;101734.98;1600259;88;25884;-79
2022/05/19 04:43:24;;;;;;;9.78;5.17;;;;;;;8.97;60.33;101734.99;1608998;87;25762;-78
2022/05/19 04:45:52;;;;;;;15.10;5.28;;;;;;;9.09;60.25;101728.93;1603298;87;25372;-78
2022/05/19 04:48:21;;;;;;;7.67;4.67;;;;;;;9.20;59.84;101731.40;1617628;87;27537;-78
2022/05/19 04:50:53;;;;;;;11.80;4.12;;;;;;;9.36;59.88;101730.25;1622887;87;25910;-77
2022/05/19 04:53:20;;;;;;;12.93;4.22;;;;;;;9.52;59.03;101726.39;1612919;87;25841;-78
2022/05/19 04:55:47;;;;;;;10.93;4.70;;;;;;;9.69;59.27;101722.88;1609510;87;25842;-79
2022/05/19 04:58:13;;;;;;;7.95;4.30;;;;;;;9.83;59.32;101725.52;1582428;88;25939;-78
2022/05/19 05:00:40;;;;;;;7.80;4.08;;;;;;;9.97;58.52;101721.78;1615039;87;27463;-81
2022/05/19 05:03:06;;;;;;;7.72;3.85;;;;;;;10.12;58.87;101720.74;1640804;85;25704;-79
2022/05/19 05:05:34;;;;;;;7.75;4.10;;;;;;;10.28;58.26;101713.33;1617889;87;26579;-81
2022/05/19 05:08:01;;;;;;;8.58;3.47;;;;;;;10.43;57.87;101716.61;1616083;87;27033;-82
2022/05/19 05:10:27;;;;;;;7.75;3.65;;;;;;;10.57;58.08;101714.67;1601212;88;25907;-80
2022/05/19 05:12:54;;;;;;;8.85;4.37;;;;;;;10.71;57.90;101715.40;1589691;90;27467;-80
2022/05/19 05:15:20;;;;;;;8.85;3.77;;;;;;;10.87;58.07;101721.34;1573320;90;26017;-79
2022/05/19 05:17:46;;;;;;;7.45;4.47;;;;;;;11.01;57.91;101709.17;1609788;88;25824;-77
2022/05/19 05:20:13;;;;;;;6.08;3.75;;;;;;;11.17;57.64;101719.94;1609458;88;26932;-78
2022/05/19 05:22:40;;;;;;;7.00;3.70;;;;;;;11.32;57.70;101720.98;1589361;90;25844;-79
2022/05/19 05:25:12;;;;;;;7.55;3.60;;;;;;;11.48;57.66;101725.05;1589615;90;27588;-78
2022/05/19 05:27:39;;;;;;;6.72;3.35;;;;;;;11.64;57.42;101721.03;1609071;88;25952;-79
2022/05/19 05:30:06;;;;;;;7.10;3.05;;;;;;;11.81;56.65;101724.09;1589886;90;26607;-78
2022/05/19 05:32:34;;;;;;;8.23;2.90;;;;;;;11.97;55.07;101725.95;1589739;90;25860;-80
2022/05/19 05:35:00;;;;;;;8.03;2.27;;;;;;;12.14;54.15;101730.30;1589662;89;25803;-79
2022/05/19 05:37:27;;;;;;;5.92;3.00;;;;;;;12.32;52.58;101730.44;1589691;89;27699;-78
2022/05/19 05:39:53;;;;;;;12.35;2.37;;;;;;;12.48;52.32;101732.77;1589582;90;25421;-78
2022/05/19 05:42:22;;;;;;;5.40;2.35;;;;;;;12.63;52.73;101739.95;1589429;90;26200;-79
2022/05/19 05:44:49;;;;;;;7.12;2.60;;;;;;;12.78;52.07;101741.42;1589664;89;26458;-78
2022/05/19 05:47:15;;;;;;;3.80;2.08;;;;;;;12.94;51.89;101743.53;1589428;89;26185;-78
2022/05/19 05:49:41;;;;;;;6.92;2.27;;;;;;;13.11;51.19;101744.33;1589218;90;27546;-79
2022/05/19 05:52:07;;;;;;;4.92;2.05;;;;;;;13.26;50.27;101745.79;1588869;89;25799;-79
2022/05/19 05:54:34;;;;;;;5.97;2.60;;;;;;;13.41;50.03;101735.95;1589441;89;25816;-78
2022/05/19 05:57:02;;;;;;;5.90;2.60;;;;;;;13.57;50.02;101740.72;1589613;90;26564;-79
2022/05/19 05:59:28;;;;;;;5.42;2.30;;;;;;;13.72;49.87;101739.43;1589492;90;25828;-78
2022/05/19 06:01:55;;;;;;;6.60;1.77;;;;;;;13.86;49.28;101736.78;1589815;90;27708;-77
2022/05/19 06:04:21;;;;;;;4.53;2.55;;;;;;;14.02;48.90;101740.37;1589231;88;26811;-78
2022/05/19 06:06:47;;;;;;;4.40;1.70;;;;;;;14.15;46.89;101740.59;1590082;90;26008;-79
2022/05/19 06:09:14;;;;;;;3.67;1.95;;;;;;;14.29;46.99;101734.41;1589585;90;25933;-79
2022/05/19 06:11:40;;;;;;;3.35;2.05;;;;;;;14.43;46.57;101734.46;1589874;90;25996;-80
2022/05/19 06:14:07;;;;;;;4.15;1.77;;;;;;;14.58;45.65;101732.59;1589583;89;27502;-78
2022/05/19 06:16:33;;;;;;;3.27;2.08;;;;;;;14.75;45.55;101727.88;1589837;89;26607;-78
2022/05/19 06:18:59;;;;;;;3.70;2.17;;;;;;;14.89;45.00;101728.36;1589485;90;25883;-79
2022/05/19 06:21:25;;;;;;;3.25;1.75;;;;;;;15.03;43.82;101733.42;1614156;88;25873;-78
2022/05/19 06:23:52;;;;;;;4.62;1.60;;;;;;;15.16;44.87;101727.66;1614963;88;26172;-79
2022/05/19 06:26:18;;;;;;;4.87;1.90;;;;;;;15.27;43.95;101729.88;1615630;88;28031;-78
2022/05/19 06:28:45;;;;;;;3.98;2.00;;;;;;;15.39;43.63;101732.93;1615070;88;25862;-79
2022/05/19 06:31:11;;;;;;;3.37;1.72;;;;;;;15.51;42.96;101731.42;1615224;87;25870;-79
2022/05/19 06:33:37;;;;;;;12.15;1.80;;;;;;;15.63;43.51;101726.37;1615017;88;25925;-78
2022/05/19 06:36:05;;;;;;;4.28;1.85;;;;;;;15.73;42.61;101734.47;1615020;88;25939;-78
2022/05/19 06:38:32;;;;;;;8.93;2.35;;;;;;;15.82;42.40;101731.13;1615228;88;27480;-79
2022/05/19 06:43:47;;;;;;;4.90;1.80;;;;;;;16.05;42.36;101736.65;1614871;87;25927;-80
2022/05/19 06:46:13;;;;;;;3.92;2.00;;;;;;;16.18;41.32;101734.56;1615265;88;25845;-79
2022/05/19 06:48:39;;;;;;;3.75;2.00;;;;;;;16.31;41.01;101740.08;1615312;87;25848;-79
2022/05/19 06:51:06;;;;;;;5.62;1.70;;;;;;;16.41;41.28;101746.48;1614878;88;27566;-78
2022/05/19 06:53:32;;;;;;;2.62;1.70;;;;;;;16.51;41.82;101739.72;1614900;88;25872;-80
2022/05/19 06:55:59;;;;;;;3.17;1.55;;;;;;;16.65;41.59;101728.48;1615007;88;25817;-80
2022/05/19 06:58:26;;;;;;;7.92;1.82;;;;;;;16.78;41.15;101725.86;1615033;88;25868;-79
2022/05/19 07:00:53;;;;;;;3.12;1.67;;;;;;;16.86;39.88;101725.17;1615415;87;25855;-79
2022/05/19 07:03:19;;;;;;;3.85;1.87;;;;;;;16.95;40.05;101716.36;1614855;88;27497;-80
2022/05/19 07:05:45;;;;;;;4.25;1.75;;;;;;;17.02;39.15;101712.34;1615563;88;26175;-79
2022/05/19 07:08:13;;;;;;;2.85;1.85;;;;;;;17.09;39.79;101707.77;1615275;88;26132;-78
2022/05/19 07:10:39;;;;;;;6.03;1.72;;;;;;;17.19;39.86;101708.24;1614969;88;26587;-78
2022/05/19 07:13:06;;;;;;;3.47;1.57;;;;;;;17.27;39.25;101710.25;1614832;88;26549;-78
2022/05/19 07:15:32;;;;;;;8.30;2.33;;;;;;;17.35;39.59;101711.41;1614993;87;27701;-79
2022/05/19 07:17:59;;;;;;;8.03;1.77;;;;;;;17.44;39.30;101706.64;1614689;88;26544;-78
2022/05/19 07:23:21;;;;;;;3.17;1.60;;;;;;;17.59;39.21;101710.89;1613884;88;25867;-78
2022/05/19 07:25:48;;;;;;;5.95;1.60;;;;;;;17.70;38.95;101710.80;1614187;88;26517;-80
2022/05/19 07:28:15;;;;;;;2.98;1.52;;;;;;;17.82;37.90;101704.23;1614049;87;27497;-78
2022/05/19 07:30:44;;;;;;;5.97;1.72;;;;;;;17.92;37.13;101708.19;1613847;88;26248;-78
2022/05/19 07:33:11;;;;;;;6.35;1.60;;;;;;;18.05;37.03;101709.55;1614076;88;25853;-79
2022/05/19 07:35:39;;;;;;;4.10;1.65;;;;;;;18.13;37.03;101705.81;1613695;88;26018;-79
2022/05/19 07:38:05;;;;;;;2.85;1.35;;;;;;;18.22;37.78;101703.21;1614116;88;25933;-79
2022/05/19 07:40:32;;;;;;;2.00;1.42;;;;;;;18.34;37.50;101698.29;1613676;88;27489;-78
2022/05/19 07:45:43;;;;;;;3.10;1.55;;;;;;;18.52;36.68;101690.86;1613750;88;25830;-79
2022/05/19 07:48:10;;;;;;;2.00;1.30;;;;;;;18.62;37.30;101685.84;1613999;88;25874;-80
2022/05/19 07:50:37;;;;;;;4.45;1.95;;;;;;;18.70;36.40;101688.83;1613799;88;25774;-79
2022/05/19 07:53:03;;;;;;;9.23;1.65;;;;;;;18.79;36.11;101680.77;1613868;88;28338;-78
2022/05/19 07:55:29;;;;;;;2.72;1.22;;;;;;;18.85;36.98;101687.54;1613686;88;25986;-78
2022/05/19 07:57:56;;;;;;;4.05;1.50;;;;;;;18.95;36.23;101696.05;1613916;88;25763;-78
2022/05/19 08:00:23;;;;;;;4.40;1.40;;;;;;;19.02;35.33;101686.52;1613999;88;25798;-79
2022/05/19 08:02:49;;;;;;;3.52;1.12;;;;;;;19.09;34.97;101685.98;1613964;88;26552;-78
2022/05/19 08:05:15;;;;;;;5.30;1.57;;;;;;;19.14;34.13;101689.70;1613786;88;27500;-79
2022/05/19 08:07:41;;;;;;;2.50;1.30;;;;;;;19.25;35.17;101685.47;1614292;88;25922;-78
2022/05/19 08:10:23;;;;;;;12.43;1.60;;;;;;;19.34;34.54;101689.63;1613737;88;25912;-78
2022/05/19 08:15:37;;;;;;;2.60;1.37;;;;;;;19.40;32.65;101683.33;1613873;88;26302;-76
2022/05/19 08:18:11;;;;;;;5.23;1.30;;;;;;;19.49;33.29;101687.97;1614300;88;27463;-78
2022/05/19 08:20:43;;;;;;;3.35;1.20;;;;;;;19.56;32.94;101681.45;1613197;88;25837;-79
2022/05/19 08:23:18;;;;;;;3.72;1.35;;;;;;;19.62;32.60;101680.58;1615294;88;25900;-78
2022/05/19 08:25:46;;;;;;;4.05;1.05;;;;;;;19.68;32.52;101678.84;1614894;88;25844;-78
2022/05/19 08:28:14;;;;;;;2.45;1.55;;;;;;;19.75;32.58;101679.12;1615104;88;26519;-78
2022/05/19 08:30:47;;;;;;;4.37;1.40;;;;;;;19.81;32.69;101668.72;1615071;88;28294;-78
2022/05/19 08:33:16;;;;;;;5.97;1.37;;;;;;;19.92;33.88;101668.00;1614934;88;25844;-78
2022/05/19 08:35:42;;;;;;;3.58;1.25;;;;;;;20.00;32.37;101665.00;1615218;88;26638;-79
2022/05/19 08:38:08;;;;;;;5.85;1.30;;;;;;;20.06;32.08;101660.54;1615164;88;26410;-81
2022/05/19 08:40:45;;;;;;;4.72;1.10;;;;;;;20.14;31.27;101667.60;1614874;88;25839;-79
2022/05/19 08:43:15;;;;;;;1.55;1.30;;;;;;;20.12;30.00;101667.00;1614831;88;27465;-78
2022/05/19 08:45:47;;;;;;;4.95;1.40;;;;;;;20.10;32.15;101656.87;1615197;88;25828;-78
2022/05/19 08:48:21;;;;;;;6.20;1.42;;;;;;;20.20;31.64;101665.34;1603471;88;25880;-79
2022/05/19 08:51:04;;;;;;;3.33;1.50;;;;;;;20.29;30.94;101654.52;1602462;88;25862;-79
2022/05/19 08:53:35;;;;;;;3.95;1.32;;;;;;;20.36;29.71;101661.53;1603498;88;25846;-79
2022/05/19 08:56:17;;;;;;;4.55;1.42;;;;;;;20.44;31.50;101653.63;1587693;90;28638;-78
2022/05/19 08:59:02;;;;;;;4.45;1.30;;;;;;;20.54;30.59;101648.47;1609902;88;26652;-79
2022/05/19 09:01:49;;;;;;;3.70;1.20;;;;;;;20.58;30.09;101649.68;1604131;88;25887;-79
2022/05/19 09:04:55;;;;;;;3.92;1.70;;;;;;;20.66;29.43;101644.77;1604810;88;28676;-78
2022/05/19 09:07:56;;;;;;;1.82;1.40;;;;;;;20.74;29.54;101639.00;1599366;88;25836;-80
2022/05/19 09:10:45;;;;;;;1.82;1.10;;;;;;;20.79;29.43;101642.41;1603436;88;28408;-79
2022/05/19 09:13:35;;;;;;;4.60;2.25;;;;;;;20.83;29.85;101641.44;1590808;88;26676;-79
2022/05/19 09:16:15;;;;;;;6.53;1.55;;;;;;;20.91;30.39;101641.96;1603087;88;25839;-78
2022/05/19 09:18:46;;;;;;;2.77;1.55;;;;;;;21.02;30.52;101637.07;1603937;88;25788;-78
2022/05/19 09:21:13;;;;;;;7.62;1.50;;;;;;;21.14;30.09;101632.55;1572625;89;25867;-77
2022/05/19 09:23:42;;;;;;;2.67;1.47;;;;;;;21.25;28.55;101629.57;1589691;88;27989;-78
2022/05/19 09:26:52;;;;;;;7.42;1.55;;;;;;;21.27;28.86;101632.37;1613573;88;25875;-79
2022/05/19 09:29:25;;;;;;;2.65;1.40;;;;;;;21.33;29.04;101630.07;1614680;88;26553;-79
2022/05/19 09:31:56;;;;;;;2.37;1.50;;;;;;;21.42;28.99;101630.57;1606139;86;25807;-78
2022/05/19 09:34:26;;;;;;;2.75;1.52;;;;;;;21.49;29.64;101630.75;1589706;88;26531;-79
2022/05/19 09:37:14;;;;;;;4.97;1.67;;;;;;;21.56;28.11;101627.92;1608474;88;27483;-78
2022/05/19 09:39:53;;;;;;;4.42;1.87;;;;;;;21.61;29.30;101625.34;1604809;88;25865;-79
2022/05/19 09:42:54;;;;;;;4.17;1.62;;;;;;;21.63;28.37;101616.39;1584415;90;25380;-79
2022/05/19 09:45:26;;;;;;;2.60;1.70;;;;;;;21.72;28.44;101612.78;1600787;86;25850;-79
2022/05/19 09:48:03;;;;;;;3.42;1.70;;;;;;;21.80;28.69;101605.09;1614977;88;25792;-79
2022/05/19 09:50:37;;;;;;;1.82;1.57;;;;;;;21.93;29.57;101606.25;1602777;88;28539;-79
2022/05/19 09:53:17;;;;;;;7.30;1.70;;;;;;;21.95;26.99;101600.02;1614640;87;26596;-78
2022/05/19 09:55:44;;;;;;;4.85;1.92;;;;;;;21.98;27.80;101598.73;1583983;88;25842;-79
2022/05/19 09:58:15;;;;;;;4.30;1.40;;;;;;;22.03;27.73;101583.81;1603536;88;25845;-78
2022/05/19 10:00:54;;;;;;;4.97;1.65;;;;;;;22.11;27.28;101587.58;1610730;88;25993;-78
2022/05/19 10:03:34;;;;;;;2.37;1.92;;;;;;;22.10;26.80;101585.38;1601447;87;27717;-78
2022/05/19 10:06:42;;;;;;;4.53;1.57;;;;;;;22.16;26.75;101579.48;1601988;87;25958;-78
2022/05/19 10:09:14;;;;;;;5.00;1.60;;;;;;;22.21;26.69;101583.17;1604769;87;25593;-79
2022/05/19 10:11:54;;;;;;;2.02;1.60;;;;;;;22.29;27.79;101573.77;1567914;90;26554;-79
2022/05/19 10:14:28;;;;;;;4.60;1.50;;;;;;;22.40;27.86;101572.92;1611822;88;25934;-78
2022/05/19 10:17:40;;;;;;;4.70;1.82;;;;;;;22.43;26.04;101569.72;1589470;90;28433;-78
2022/05/19 10:20:21;;;;;;;4.42;1.50;;;;;;;22.47;25.85;101564.59;1584096;90;26646;-77
2022/05/19 10:23:02;;;;;;;2.62;1.60;;;;;;;22.48;26.50;101556.68;1576620;90;25820;-79
2022/05/19 10:25:57;;;;;;;4.72;1.62;;;;;;;22.52;26.57;101558.69;1593219;88;25888;-79
2022/05/19 10:32:05;;;;;;;9.23;1.95;;;;;;;22.62;25.65;101552.65;1622848;87;28156;-79
2022/05/19 10:34:56;;;;;;;7.40;1.80;;;;;;;22.69;25.68;101547.88;1601880;88;25765;-79
2022/05/19 10:37:46;;;;;;;5.12;2.08;;;;;;;22.72;26.67;101546.84;1604841;88;25870;-78
2022/05/19 10:40:24;;;;;;;7.17;2.52;;;;;;;22.79;25.66;101540.71;1588245;90;25964;-77
2022/05/19 10:43:21;;;;;;;6.20;1.85;;;;;;;22.81;25.24;101534.47;1589558;88;25671;-79
2022/05/19 10:45:49;;;;;;;8.05;2.67;;;;;;;22.82;25.54;101538.84;1589152;88;27490;-79
2022/05/19 10:48:51;;;;;;;3.17;2.25;;;;;;;22.84;25.86;101521.66;1589874;88;25787;-78
2022/05/19 10:51:52;;;;;;;5.67;2.17;;;;;;;22.89;25.20;101519.03;1609017;88;25945;-79
2022/05/19 10:54:23;;;;;;;3.87;1.80;;;;;;;22.97;26.58;101511.80;1600328;88;25985;-79
2022/05/19 10:57:21;;;;;;;4.55;2.10;;;;;;;23.09;25.79;101506.81;1588920;90;25777;-79
2022/05/19 11:00:15;;;;;;;5.55;1.90;;;;;;;23.15;26.36;101512.11;1609183;88;27564;-78
2022/05/19 11:03:01;;;;;;;4.87;1.95;;;;;;;23.21;26.46;101505.65;1622695;87;25993;-78
2022/05/19 11:05:42;;;;;;;4.28;1.75;;;;;;;23.33;26.30;101502.88;1616215;87;25825;-79
2022/05/19 11:08:16;;;;;;;5.62;1.67;;;;;;;23.41;26.09;101496.45;1589060;90;25794;-79
2022/05/19 11:11:04;;;;;;;7.42;2.12;;;;;;;23.47;26.41;101494.08;1589970;89;25973;-79
2022/05/19 11:13:56;;;;;;;7.42;2.37;;;;;;;23.50;25.80;101479.09;1610775;87;28567;-78
2022/05/19 11:16:51;;;;;;;4.20;1.85;;;;;;;23.49;26.30;101489.72;1609015;88;25845;-78
2022/05/19 11:19:29;;;;;;;6.00;2.08;;;;;;;23.53;25.16;101479.94;1601915;88;26028;-79
2022/05/19 11:22:08;;;;;;;6.78;2.08;;;;;;;23.58;26.28;101473.19;1602375;88;26647;-79
2022/05/19 11:27:35;;;;;;;6.92;2.05;;;;;;;23.76;25.21;101468.78;1604475;88;28320;-79
2022/05/19 11:30:16;;;;;;;6.17;2.17;;;;;;;23.81;25.80;101467.49;1604034;88;26230;-79
2022/05/19 11:32:47;;;;;;;5.62;1.92;;;;;;;23.85;25.90;101463.70;1606237;88;25907;-80
2022/05/19 11:35:34;;;;;;;5.20;1.98;;;;;;;23.89;26.53;101455.30;1589002;90;25774;-79
2022/05/19 11:38:17;;;;;;;4.75;1.90;;;;;;;23.94;26.61;101456.71;1597972;88;25978;-79
2022/05/19 11:41:00;;;;;;;6.08;2.33;;;;;;;24.04;26.94;101447.25;1563498;90;28570;-78
2022/05/19 11:43:49;;;;;;;4.85;2.05;;;;;;;24.09;26.45;101448.73;1588685;90;25945;-79
2022/05/19 11:46:34;;;;;;;4.22;2.10;;;;;;;24.07;25.56;101440.78;1589261;90;25805;-78
2022/05/19 11:55:45;;;;;;;6.87;2.72;;;;;;;24.16;26.38;101435.15;1590439;88;27669;-79
2022/05/19 11:58:22;;;;;;;5.10;2.42;;;;;;;24.20;25.72;101431.34;1590377;88;25816;-77
2022/05/19 12:01:08;;;;;;;6.55;2.08;;;;;;;24.27;25.19;101427.30;1601307;88;26495;-79
2022/05/19 12:03:58;;;;;;;3.33;1.87;;;;;;;24.28;25.62;101418.02;1602223;89;26649;-79
2022/05/19 12:06:35;;;;;;;6.58;1.90;;;;;;;24.34;25.20;101406.56;1566562;89;25882;-79
2022/05/19 12:09:10;;;;;;;3.95;2.12;;;;;;;24.40;25.15;101409.67;1598188;88;27562;-78
2022/05/19 12:11:48;;;;;;;4.45;1.60;;;;;;;24.44;25.77;101405.33;1593831;88;25810;-79
2022/05/19 12:14:33;;;;;;;3.87;2.17;;;;;;;24.50;25.30;101405.66;1614802;88;25908;-79